sensor_id;sensor_type;location;lat;lon;timestamp;temperature;humidity
50947;DHT22;36955;47.416;7.716;2022-10-26T00:01:38;14.40;99.90
50947;DHT22;36955;47.416;7.716;2022-10-26T00:04:04;14.40;99.90
50947;DHT22;36955;47.416;7.716;2022-10-26T00:06:30;14.40;99.90
50947;DHT22;36955;47.416;7.716;2022-10-26T00:08:57;14.30;99.90
50947;DHT22;36955;47.416;7.716;2022-10-26T00:11:23;14.20;99.90
50947;DHT22;36955;47.416;7.716;2022-10-26T00:13:49;14.20;99.90
50947;DHT22;36955;47.416;7.716;2022-10-26T00:16:24;14.10;99.90
50947;DHT22;36955;47.416;7.716;2022-10-26T00:18:50;14.10;99.90
50947;DHT22;36955;47.416;7.716;2022-10-26T00:21:17;14.00;99.90
50947;DHT22;36955;47.416;7.716;2022-10-26T00:23:44;14.00;99.90
50947;DHT22;36955;47.416;7.716;2022-10-26T00:26:10;13.90;99.90
50947;DHT22;36955;47.416;7.716;2022-10-26T00:28:36;13.70;99.90
50947;DHT22;36955;47.416;7.716;2022-10-26T00:31:08;13.60;99.90
50947;DHT22;36955;47.416;7.716;2022-10-26T00:33:36;13.40;99.90
50947;DHT22;36955;47.416;7.716;2022-10-26T00:36:02;13.40;99.90
50947;DHT22;36955;47.416;7.716;2022-10-26T00:38:29;13.40;99.90
50947;DHT22;36955;47.416;7.716;2022-10-26T00:40:55;13.20;99.90
50947;DHT22;36955;47.416;7.716;2022-10-26T00:45:49;13.00;99.90
50947;DHT22;36955;47.416;7.716;2022-10-26T00:48:25;13.00;99.90
50947;DHT22;36955;47.416;7.716;2022-10-26T00:50:54;13.00;99.90
50947;DHT22;36955;47.416;7.716;2022-10-26T00:53:21;12.90;99.90
50947;DHT22;36955;47.416;7.716;2022-10-26T00:55:50;12.90;99.90
50947;DHT22;36955;47.416;7.716;2022-10-26T00:58:17;12.90;99.90
50947;DHT22;36955;47.416;7.716;2022-10-26T01:00:44;13.00;99.90
50947;DHT22;36955;47.416;7.716;2022-10-26T01:03:11;12.90;99.90
50947;DHT22;36955;47.416;7.716;2022-10-26T01:05:39;13.00;99.90
50947;DHT22;36955;47.416;7.716;2022-10-26T01:08:07;13.00;99.90
50947;DHT22;36955;47.416;7.716;2022-10-26T01:10:35;13.00;99.90
50947;DHT22;36955;47.416;7.716;2022-10-26T01:13:03;12.90;99.90
50947;DHT22;36955;47.416;7.716;2022-10-26T01:18:22;13.10;99.90
50947;DHT22;36955;47.416;7.716;2022-10-26T01:41:33;13.40;99.90
50947;DHT22;36955;47.416;7.716;2022-10-26T01:44:06;13.40;99.90
50947;DHT22;36955;47.416;7.716;2022-10-26T01:46:38;13.20;99.90
50947;DHT22;36955;47.416;7.716;2022-10-26T01:49:10;13.20;99.90
50947;DHT22;36955;47.416;7.716;2022-10-26T01:51:41;13.10;99.90
50947;DHT22;36955;47.416;7.716;2022-10-26T01:54:08;13.10;99.90
50947;DHT22;36955;47.416;7.716;2022-10-26T01:56:38;13.00;99.90
50947;DHT22;36955;47.416;7.716;2022-10-26T02:12:04;13.00;99.90
50947;DHT22;36955;47.416;7.716;2022-10-26T02:17:22;13.20;99.90
50947;DHT22;36955;47.416;7.716;2022-10-26T02:20:16;13.20;99.90
50947;DHT22;36955;47.416;7.716;2022-10-26T02:22:47;13.20;99.90
50947;DHT22;36955;47.416;7.716;2022-10-26T02:25:18;13.30;99.90
50947;DHT22;36955;47.416;7.716;2022-10-26T02:27:49;13.30;99.90
50947;DHT22;36955;47.416;7.716;2022-10-26T02:30:16;13.40;99.90
50947;DHT22;36955;47.416;7.716;2022-10-26T02:32:47;13.50;99.90
50947;DHT22;36955;47.416;7.716;2022-10-26T02:35:16;13.50;99.90
50947;DHT22;36955;47.416;7.716;2022-10-26T02:37:45;13.60;99.90
50947;DHT22;36955;47.416;7.716;2022-10-26T02:40:18;13.50;99.90
50947;DHT22;36955;47.416;7.716;2022-10-26T02:42:45;13.60;99.90
50947;DHT22;36955;47.416;7.716;2022-10-26T02:45:15;13.70;99.90
50947;DHT22;36955;47.416;7.716;2022-10-26T02:47:42;13.80;99.90
50947;DHT22;36955;47.416;7.716;2022-10-26T02:50:08;13.90;99.90
50947;DHT22;36955;47.416;7.716;2022-10-26T02:55:38;13.90;99.90
50947;DHT22;36955;47.416;7.716;2022-10-26T02:58:15;13.90;99.90
50947;DHT22;36955;47.416;7.716;2022-10-26T03:00:42;14.00;99.90
50947;DHT22;36955;47.416;7.716;2022-10-26T03:03:09;13.90;99.90
50947;DHT22;36955;47.416;7.716;2022-10-26T03:05:35;13.90;99.90
50947;DHT22;36955;47.416;7.716;2022-10-26T03:08:02;13.80;99.90
50947;DHT22;36955;47.416;7.716;2022-10-26T03:10:28;13.80;99.90
50947;DHT22;36955;47.416;7.716;2022-10-26T03:12:54;13.80;99.90
50947;DHT22;36955;47.416;7.716;2022-10-26T03:15:20;13.70;99.90
50947;DHT22;36955;47.416;7.716;2022-10-26T03:17:46;13.70;99.90
50947;DHT22;36955;47.416;7.716;2022-10-26T03:20:12;13.70;99.90
50947;DHT22;36955;47.416;7.716;2022-10-26T03:22:38;13.70;99.90
50947;DHT22;36955;47.416;7.716;2022-10-26T03:25:05;13.70;99.90
50947;DHT22;36955;47.416;7.716;2022-10-26T03:27:31;13.70;99.90
50947;DHT22;36955;47.416;7.716;2022-10-26T03:29:57;13.80;99.90
50947;DHT22;36955;47.416;7.716;2022-10-26T03:32:23;13.80;99.90
50947;DHT22;36955;47.416;7.716;2022-10-26T03:34:49;13.70;99.90
50947;DHT22;36955;47.416;7.716;2022-10-26T03:37:15;13.70;99.90
50947;DHT22;36955;47.416;7.716;2022-10-26T03:39:41;13.70;99.90
50947;DHT22;36955;47.416;7.716;2022-10-26T03:42:07;13.80;99.90
50947;DHT22;36955;47.416;7.716;2022-10-26T03:44:33;13.80;99.90
50947;DHT22;36955;47.416;7.716;2022-10-26T03:46:59;13.90;99.90
50947;DHT22;36955;47.416;7.716;2022-10-26T03:49:25;13.90;99.90
50947;DHT22;36955;47.416;7.716;2022-10-26T03:51:51;14.00;99.90
50947;DHT22;36955;47.416;7.716;2022-10-26T03:54:17;14.10;99.90
50947;DHT22;36955;47.416;7.716;2022-10-26T03:56:43;14.20;99.90
50947;DHT22;36955;47.416;7.716;2022-10-26T03:59:09;14.30;99.90
50947;DHT22;36955;47.416;7.716;2022-10-26T04:01:35;14.50;99.90
50947;DHT22;36955;47.416;7.716;2022-10-26T04:04:01;14.60;99.90
50947;DHT22;36955;47.416;7.716;2022-10-26T04:06:27;14.70;99.90
50947;DHT22;36955;47.416;7.716;2022-10-26T04:08:53;14.70;99.90
50947;DHT22;36955;47.416;7.716;2022-10-26T04:11:19;14.80;99.90
50947;DHT22;36955;47.416;7.716;2022-10-26T04:13:47;14.80;99.90
50947;DHT22;36955;47.416;7.716;2022-10-26T04:16:13;14.90;99.90
50947;DHT22;36955;47.416;7.716;2022-10-26T04:18:39;15.00;99.90
50947;DHT22;36955;47.416;7.716;2022-10-26T04:21:05;15.00;99.90
50947;DHT22;36955;47.416;7.716;2022-10-26T04:23:31;15.10;99.90
50947;DHT22;36955;47.416;7.716;2022-10-26T04:25:57;15.10;99.90
50947;DHT22;36955;47.416;7.716;2022-10-26T04:28:23;15.10;99.90
50947;DHT22;36955;47.416;7.716;2022-10-26T04:30:49;15.00;99.90
50947;DHT22;36955;47.416;7.716;2022-10-26T04:33:15;15.00;99.90
50947;DHT22;36955;47.416;7.716;2022-10-26T04:35:41;15.00;99.90
50947;DHT22;36955;47.416;7.716;2022-10-26T04:38:08;15.10;99.90
50947;DHT22;36955;47.416;7.716;2022-10-26T04:40:34;15.10;99.90
50947;DHT22;36955;47.416;7.716;2022-10-26T04:43:00;15.00;99.90
50947;DHT22;36955;47.416;7.716;2022-10-26T04:45:27;14.90;99.90
50947;DHT22;36955;47.416;7.716;2022-10-26T04:48:00;14.90;99.90
50947;DHT22;36955;47.416;7.716;2022-10-26T04:50:26;14.80;99.90
50947;DHT22;36955;47.416;7.716;2022-10-26T04:52:52;14.90;99.90
50947;DHT22;36955;47.416;7.716;2022-10-26T04:55:18;14.80;99.90
50947;DHT22;36955;47.416;7.716;2022-10-26T04:57:44;14.80;99.90
50947;DHT22;36955;47.416;7.716;2022-10-26T05:00:10;14.90;99.90
50947;DHT22;36955;47.416;7.716;2022-10-26T05:02:37;15.00;99.90
50947;DHT22;36955;47.416;7.716;2022-10-26T05:05:03;15.10;99.90
50947;DHT22;36955;47.416;7.716;2022-10-26T05:07:29;15.30;99.90
50947;DHT22;36955;47.416;7.716;2022-10-26T05:09:55;15.40;99.90
50947;DHT22;36955;47.416;7.716;2022-10-26T05:12:21;15.60;99.90
50947;DHT22;36955;47.416;7.716;2022-10-26T05:14:47;15.60;99.90
50947;DHT22;36955;47.416;7.716;2022-10-26T05:17:13;15.70;99.90
50947;DHT22;36955;47.416;7.716;2022-10-26T05:19:39;15.60;99.90
50947;DHT22;36955;47.416;7.716;2022-10-26T05:22:05;15.50;99.90
50947;DHT22;36955;47.416;7.716;2022-10-26T05:24:31;15.50;99.90
50947;DHT22;36955;47.416;7.716;2022-10-26T05:26:57;15.40;99.90
50947;DHT22;36955;47.416;7.716;2022-10-26T05:29:23;15.40;99.90
50947;DHT22;36955;47.416;7.716;2022-10-26T05:31:50;15.40;99.90
50947;DHT22;36955;47.416;7.716;2022-10-26T05:34:16;15.40;99.90
50947;DHT22;36955;47.416;7.716;2022-10-26T05:36:42;15.30;99.90
50947;DHT22;36955;47.416;7.716;2022-10-26T05:39:08;15.20;99.90
50947;DHT22;36955;47.416;7.716;2022-10-26T05:41:34;15.10;99.90
50947;DHT22;36955;47.416;7.716;2022-10-26T05:44:00;15.00;99.90
50947;DHT22;36955;47.416;7.716;2022-10-26T05:46:26;14.90;99.90
50947;DHT22;36955;47.416;7.716;2022-10-26T05:48:52;14.90;99.90
50947;DHT22;36955;47.416;7.716;2022-10-26T05:51:18;14.70;99.90
50947;DHT22;36955;47.416;7.716;2022-10-26T05:53:44;14.60;99.90
50947;DHT22;36955;47.416;7.716;2022-10-26T05:56:19;14.60;99.90
50947;DHT22;36955;47.416;7.716;2022-10-26T05:58:49;14.60;99.90
50947;DHT22;36955;47.416;7.716;2022-10-26T06:01:18;14.60;99.90
50947;DHT22;36955;47.416;7.716;2022-10-26T06:06:17;14.80;99.90
50947;DHT22;36955;47.416;7.716;2022-10-26T06:08:43;14.90;99.90
50947;DHT22;36955;47.416;7.716;2022-10-26T06:11:09;15.00;99.90
50947;DHT22;36955;47.416;7.716;2022-10-26T06:13:36;15.00;99.90
50947;DHT22;36955;47.416;7.716;2022-10-26T06:16:08;15.10;99.90
50947;DHT22;36955;47.416;7.716;2022-10-26T06:19:04;15.20;99.90
50947;DHT22;36955;47.416;7.716;2022-10-26T06:22:27;15.30;99.90
50947;DHT22;36955;47.416;7.716;2022-10-26T06:24:45;15.30;99.90
50947;DHT22;36955;47.416;7.716;2022-10-26T06:27:20;15.30;99.90
50947;DHT22;36955;47.416;7.716;2022-10-26T06:30:00;15.30;99.90
50947;DHT22;36955;47.416;7.716;2022-10-26T06:32:27;15.30;99.90
50947;DHT22;36955;47.416;7.716;2022-10-26T06:37:45;15.40;99.90
50947;DHT22;36955;47.416;7.716;2022-10-26T06:40:13;15.30;99.90
50947;DHT22;36955;47.416;7.716;2022-10-26T06:42:40;15.30;99.90
50947;DHT22;36955;47.416;7.716;2022-10-26T06:45:11;15.30;99.90
50947;DHT22;36955;47.416;7.716;2022-10-26T06:48:03;15.20;99.90
50947;DHT22;36955;47.416;7.716;2022-10-26T06:50:50;15.20;99.90
50947;DHT22;36955;47.416;7.716;2022-10-26T06:53:28;15.20;99.90
50947;DHT22;36955;47.416;7.716;2022-10-26T06:55:58;15.20;99.90
50947;DHT22;36955;47.416;7.716;2022-10-26T06:58:28;15.10;99.90
50947;DHT22;36955;47.416;7.716;2022-10-26T07:00:55;15.10;99.90
50947;DHT22;36955;47.416;7.716;2022-10-26T07:03:22;15.10;99.90
50947;DHT22;36955;47.416;7.716;2022-10-26T07:05:48;15.20;99.90
50947;DHT22;36955;47.416;7.716;2022-10-26T07:08:14;15.20;99.90
50947;DHT22;36955;47.416;7.716;2022-10-26T07:10:40;15.20;99.90
50947;DHT22;36955;47.416;7.716;2022-10-26T07:13:07;15.10;99.90
50947;DHT22;36955;47.416;7.716;2022-10-26T07:15:34;15.10;99.90
50947;DHT22;36955;47.416;7.716;2022-10-26T07:18:03;15.20;99.90
50947;DHT22;36955;47.416;7.716;2022-10-26T07:20:30;15.20;99.90
50947;DHT22;36955;47.416;7.716;2022-10-26T07:22:57;15.20;99.90
50947;DHT22;36955;47.416;7.716;2022-10-26T07:25:24;15.30;99.90
50947;DHT22;36955;47.416;7.716;2022-10-26T07:27:51;15.30;99.90
50947;DHT22;36955;47.416;7.716;2022-10-26T07:30:17;15.30;99.90
50947;DHT22;36955;47.416;7.716;2022-10-26T07:32:43;15.30;99.90
50947;DHT22;36955;47.416;7.716;2022-10-26T07:35:09;15.30;99.90
50947;DHT22;36955;47.416;7.716;2022-10-26T07:37:35;15.30;99.90
50947;DHT22;36955;47.416;7.716;2022-10-26T07:40:01;15.40;99.90
50947;DHT22;36955;47.416;7.716;2022-10-26T07:42:28;15.40;99.90
50947;DHT22;36955;47.416;7.716;2022-10-26T07:44:54;15.40;99.90
50947;DHT22;36955;47.416;7.716;2022-10-26T07:47:20;15.40;99.90
50947;DHT22;36955;47.416;7.716;2022-10-26T07:49:46;15.50;99.90
50947;DHT22;36955;47.416;7.716;2022-10-26T07:52:12;15.60;99.90
50947;DHT22;36955;47.416;7.716;2022-10-26T07:54:38;15.70;99.90
50947;DHT22;36955;47.416;7.716;2022-10-26T07:57:04;15.80;99.90
50947;DHT22;36955;47.416;7.716;2022-10-26T07:59:30;15.90;99.90
50947;DHT22;36955;47.416;7.716;2022-10-26T08:01:56;16.00;99.90
50947;DHT22;36955;47.416;7.716;2022-10-26T08:04:22;16.00;99.90
50947;DHT22;36955;47.416;7.716;2022-10-26T08:06:48;16.10;99.90
50947;DHT22;36955;47.416;7.716;2022-10-26T08:09:14;16.30;99.90
50947;DHT22;36955;47.416;7.716;2022-10-26T08:11:40;16.40;99.90
50947;DHT22;36955;47.416;7.716;2022-10-26T08:14:06;16.60;99.90
50947;DHT22;36955;47.416;7.716;2022-10-26T08:16:32;16.70;99.90
50947;DHT22;36955;47.416;7.716;2022-10-26T08:18:58;16.90;99.90
50947;DHT22;36955;47.416;7.716;2022-10-26T08:21:24;17.00;99.90
50947;DHT22;36955;47.416;7.716;2022-10-26T08:23:50;17.20;99.90
50947;DHT22;36955;47.416;7.716;2022-10-26T08:26:16;17.30;99.90
50947;DHT22;36955;47.416;7.716;2022-10-26T08:28:42;17.40;99.90
50947;DHT22;36955;47.416;7.716;2022-10-26T08:31:08;17.50;99.90
50947;DHT22;36955;47.416;7.716;2022-10-26T08:33:34;17.60;99.90
50947;DHT22;36955;47.416;7.716;2022-10-26T08:36:03;17.70;99.90
50947;DHT22;36955;47.416;7.716;2022-10-26T08:38:29;17.80;99.90
50947;DHT22;36955;47.416;7.716;2022-10-26T08:40:58;17.80;99.90
50947;DHT22;36955;47.416;7.716;2022-10-26T08:43:39;17.90;99.90
50947;DHT22;36955;47.416;7.716;2022-10-26T08:46:14;18.00;99.90
50947;DHT22;36955;47.416;7.716;2022-10-26T08:48:47;18.00;99.90
50947;DHT22;36955;47.416;7.716;2022-10-26T08:51:19;18.10;99.90
50947;DHT22;36955;47.416;7.716;2022-10-26T08:53:53;18.20;99.90
50947;DHT22;36955;47.416;7.716;2022-10-26T08:56:26;18.30;99.90
50947;DHT22;36955;47.416;7.716;2022-10-26T08:58:56;18.30;99.90
50947;DHT22;36955;47.416;7.716;2022-10-26T09:01:24;18.20;99.90
50947;DHT22;36955;47.416;7.716;2022-10-26T09:03:50;18.30;99.90
50947;DHT22;36955;47.416;7.716;2022-10-26T09:09:12;18.30;99.90
50947;DHT22;36955;47.416;7.716;2022-10-26T09:13:02;18.30;99.90
50947;DHT22;36955;47.416;7.716;2022-10-26T09:23:36;18.70;99.90
50947;DHT22;36955;47.416;7.716;2022-10-26T09:26:13;18.70;99.90
50947;DHT22;36955;47.416;7.716;2022-10-26T09:28:40;18.70;99.90
50947;DHT22;36955;47.416;7.716;2022-10-26T09:31:14;18.80;99.90
50947;DHT22;36955;47.416;7.716;2022-10-26T09:33:40;18.80;99.90
50947;DHT22;36955;47.416;7.716;2022-10-26T09:36:12;18.90;99.90
50947;DHT22;36955;47.416;7.716;2022-10-26T09:38:57;18.90;99.90
50947;DHT22;36955;47.416;7.716;2022-10-26T09:41:48;19.00;99.90
50947;DHT22;36955;47.416;7.716;2022-10-26T09:44:43;19.00;99.90
50947;DHT22;36955;47.416;7.716;2022-10-26T09:50:29;19.00;99.90
50947;DHT22;36955;47.416;7.716;2022-10-26T09:52:57;19.00;99.90
50947;DHT22;36955;47.416;7.716;2022-10-26T09:55:23;19.00;99.90
50947;DHT22;36955;47.416;7.716;2022-10-26T09:57:56;19.10;99.90
50947;DHT22;36955;47.416;7.716;2022-10-26T10:00:25;19.10;99.90
50947;DHT22;36955;47.416;7.716;2022-10-26T10:02:58;19.20;99.90
50947;DHT22;36955;47.416;7.716;2022-10-26T10:05:34;19.30;99.90
50947;DHT22;36955;47.416;7.716;2022-10-26T10:08:17;19.30;99.90
50947;DHT22;36955;47.416;7.716;2022-10-26T10:11:09;19.30;99.90
50947;DHT22;36955;47.416;7.716;2022-10-26T10:13:40;19.30;99.90
50947;DHT22;36955;47.416;7.716;2022-10-26T10:16:11;19.40;99.90
50947;DHT22;36955;47.416;7.716;2022-10-26T10:18:40;19.50;99.90
50947;DHT22;36955;47.416;7.716;2022-10-26T10:21:06;19.50;99.90
50947;DHT22;36955;47.416;7.716;2022-10-26T10:23:36;19.50;99.90
50947;DHT22;36955;47.416;7.716;2022-10-26T10:26:07;19.50;99.90
50947;DHT22;36955;47.416;7.716;2022-10-26T10:28:33;19.60;99.90
50947;DHT22;36955;47.416;7.716;2022-10-26T10:31:02;19.60;99.90
50947;DHT22;36955;47.416;7.716;2022-10-26T10:33:40;19.70;99.90
50947;DHT22;36955;47.416;7.716;2022-10-26T10:36:12;19.70;99.90
50947;DHT22;36955;47.416;7.716;2022-10-26T10:38:42;19.70;99.90
50947;DHT22;36955;47.416;7.716;2022-10-26T10:43:49;19.90;99.90
50947;DHT22;36955;47.416;7.716;2022-10-26T10:46:22;19.90;99.90
50947;DHT22;36955;47.416;7.716;2022-10-26T10:49:35;19.90;99.90
50947;DHT22;36955;47.416;7.716;2022-10-26T10:51:41;19.90;99.90
50947;DHT22;36955;47.416;7.716;2022-10-26T10:54:26;19.90;99.90
50947;DHT22;36955;47.416;7.716;2022-10-26T10:57:01;19.90;99.90
50947;DHT22;36955;47.416;7.716;2022-10-26T10:59:54;19.90;99.90
50947;DHT22;36955;47.416;7.716;2022-10-26T11:05:35;19.80;99.90
50947;DHT22;36955;47.416;7.716;2022-10-26T11:08:10;19.90;99.90
50947;DHT22;36955;47.416;7.716;2022-10-26T11:10:41;19.90;99.90
50947;DHT22;36955;47.416;7.716;2022-10-26T11:13:25;19.90;99.90
50947;DHT22;36955;47.416;7.716;2022-10-26T11:15:59;19.90;99.90
50947;DHT22;36955;47.416;7.716;2022-10-26T11:18:39;19.90;99.90
50947;DHT22;36955;47.416;7.716;2022-10-26T11:21:26;20.00;99.90
50947;DHT22;36955;47.416;7.716;2022-10-26T11:24:05;20.00;99.90
50947;DHT22;36955;47.416;7.716;2022-10-26T11:27:04;20.10;99.90
50947;DHT22;36955;47.416;7.716;2022-10-26T11:35:04;20.10;99.90
50947;DHT22;36955;47.416;7.716;2022-10-26T11:40:43;20.00;99.90
50947;DHT22;36955;47.416;7.716;2022-10-26T11:45:44;20.20;99.90
50947;DHT22;36955;47.416;7.716;2022-10-26T11:50:43;20.20;99.90
50947;DHT22;36955;47.416;7.716;2022-10-26T11:53:14;20.20;99.90
50947;DHT22;36955;47.416;7.716;2022-10-26T11:55:45;20.20;99.90
50947;DHT22;36955;47.416;7.716;2022-10-26T11:58:13;20.20;99.90
50947;DHT22;36955;47.416;7.716;2022-10-26T12:00:48;20.20;99.90
50947;DHT22;36955;47.416;7.716;2022-10-26T12:03:32;20.20;99.90
50947;DHT22;36955;47.416;7.716;2022-10-26T12:05:59;20.20;99.90
50947;DHT22;36955;47.416;7.716;2022-10-26T12:08:31;20.30;99.90
50947;DHT22;36955;47.416;7.716;2022-10-26T12:19:23;20.60;99.90
50947;DHT22;36955;47.416;7.716;2022-10-26T12:21:51;20.70;99.90
50947;DHT22;36955;47.416;7.716;2022-10-26T12:27:17;20.80;99.90
50947;DHT22;36955;47.416;7.716;2022-10-26T12:29:47;20.80;99.90
50947;DHT22;36955;47.416;7.716;2022-10-26T12:35:00;20.60;99.90
50947;DHT22;36955;47.416;7.716;2022-10-26T12:37:36;20.50;99.90
50947;DHT22;36955;47.416;7.716;2022-10-26T12:42:56;20.50;99.90
50947;DHT22;36955;47.416;7.716;2022-10-26T12:45:23;20.60;99.90
50947;DHT22;36955;47.416;7.716;2022-10-26T12:50:24;20.70;99.90
50947;DHT22;36955;47.416;7.716;2022-10-26T12:53:25;20.70;99.90
50947;DHT22;36955;47.416;7.716;2022-10-26T12:55:53;20.70;99.90
50947;DHT22;36955;47.416;7.716;2022-10-26T12:58:51;20.60;99.90
50947;DHT22;36955;47.416;7.716;2022-10-26T13:01:51;20.50;99.90
50947;DHT22;36955;47.416;7.716;2022-10-26T13:07:18;20.30;99.90
50947;DHT22;36955;47.416;7.716;2022-10-26T13:12:56;20.20;99.90
50947;DHT22;36955;47.416;7.716;2022-10-26T13:15:26;20.10;99.90
50947;DHT22;36955;47.416;7.716;2022-10-26T13:18:08;20.10;99.90
50947;DHT22;36955;47.416;7.716;2022-10-26T13:20:37;20.10;99.90
50947;DHT22;36955;47.416;7.716;2022-10-26T13:23:24;20.10;99.90
50947;DHT22;36955;47.416;7.716;2022-10-26T13:26:27;20.10;99.90
50947;DHT22;36955;47.416;7.716;2022-10-26T13:29:01;20.10;99.90
50947;DHT22;36955;47.416;7.716;2022-10-26T13:39:29;19.70;99.90
50947;DHT22;36955;47.416;7.716;2022-10-26T13:41:57;19.80;99.90
50947;DHT22;36955;47.416;7.716;2022-10-26T13:44:38;19.80;99.90
50947;DHT22;36955;47.416;7.716;2022-10-26T13:47:11;19.90;99.90
50947;DHT22;36955;47.416;7.716;2022-10-26T13:49:42;20.00;99.90
50947;DHT22;36955;47.416;7.716;2022-10-26T13:52:15;20.10;99.90
50947;DHT22;36955;47.416;7.716;2022-10-26T13:54:46;20.10;99.90
50947;DHT22;36955;47.416;7.716;2022-10-26T13:57:41;20.00;99.90
50947;DHT22;36955;47.416;7.716;2022-10-26T14:00:18;20.00;99.90
50947;DHT22;36955;47.416;7.716;2022-10-26T14:02:44;20.00;99.90
50947;DHT22;36955;47.416;7.716;2022-10-26T14:05:14;20.00;99.90
50947;DHT22;36955;47.416;7.716;2022-10-26T14:10:06;20.20;99.90
50947;DHT22;36955;47.416;7.716;2022-10-26T14:12:33;20.40;99.90
50947;DHT22;36955;47.416;7.716;2022-10-26T14:15:04;20.30;99.90
50947;DHT22;36955;47.416;7.716;2022-10-26T14:17:32;20.20;99.90
50947;DHT22;36955;47.416;7.716;2022-10-26T14:19:58;20.10;99.90
50947;DHT22;36955;47.416;7.716;2022-10-26T14:22:26;20.00;99.90
50947;DHT22;36955;47.416;7.716;2022-10-26T14:24:58;19.90;99.90
50947;DHT22;36955;47.416;7.716;2022-10-26T14:27:32;19.80;99.90
50947;DHT22;36955;47.416;7.716;2022-10-26T14:30:23;19.60;99.90
50947;DHT22;36955;47.416;7.716;2022-10-26T14:32:50;19.60;99.90
50947;DHT22;36955;47.416;7.716;2022-10-26T14:35:18;19.50;99.90
50947;DHT22;36955;47.416;7.716;2022-10-26T14:37:51;19.40;99.90
50947;DHT22;36955;47.416;7.716;2022-10-26T14:40:20;19.40;99.90
50947;DHT22;36955;47.416;7.716;2022-10-26T14:42:52;19.40;99.90
50947;DHT22;36955;47.416;7.716;2022-10-26T14:45:27;19.50;99.90
50947;DHT22;36955;47.416;7.716;2022-10-26T14:47:54;19.40;99.90
50947;DHT22;36955;47.416;7.716;2022-10-26T14:50:21;19.30;99.90
50947;DHT22;36955;47.416;7.716;2022-10-26T14:52:56;19.30;99.90
50947;DHT22;36955;47.416;7.716;2022-10-26T14:55:23;19.40;99.90
50947;DHT22;36955;47.416;7.716;2022-10-26T14:57:51;19.30;99.90
50947;DHT22;36955;47.416;7.716;2022-10-26T15:00:21;19.30;99.90
50947;DHT22;36955;47.416;7.716;2022-10-26T15:02:49;19.20;99.90
50947;DHT22;36955;47.416;7.716;2022-10-26T15:07:51;19.00;99.90
50947;DHT22;36955;47.416;7.716;2022-10-26T15:13:28;18.90;99.90
50947;DHT22;36955;47.416;7.716;2022-10-26T15:15:57;18.70;99.90
50947;DHT22;36955;47.416;7.716;2022-10-26T15:18:30;18.50;99.90
50947;DHT22;36955;47.416;7.716;2022-10-26T15:20:58;18.40;99.90
50947;DHT22;36955;47.416;7.716;2022-10-26T15:23:26;18.30;99.90
50947;DHT22;36955;47.416;7.716;2022-10-26T15:26:01;18.20;99.90
50947;DHT22;36955;47.416;7.716;2022-10-26T15:28:37;18.10;99.90
50947;DHT22;36955;47.416;7.716;2022-10-26T15:33:32;17.80;99.90
50947;DHT22;36955;47.416;7.716;2022-10-26T15:36:11;17.70;99.90
50947;DHT22;36955;47.416;7.716;2022-10-26T15:38:37;17.60;99.90
50947;DHT22;36955;47.416;7.716;2022-10-26T15:41:04;17.50;99.90
50947;DHT22;36955;47.416;7.716;2022-10-26T15:43:31;17.40;99.90
50947;DHT22;36955;47.416;7.716;2022-10-26T15:45:57;17.40;99.90
50947;DHT22;36955;47.416;7.716;2022-10-26T15:48:24;17.40;99.90
50947;DHT22;36955;47.416;7.716;2022-10-26T15:50:51;17.30;99.90
50947;DHT22;36955;47.416;7.716;2022-10-26T15:53:23;17.30;99.90
50947;DHT22;36955;47.416;7.716;2022-10-26T15:55:52;17.20;99.90
50947;DHT22;36955;47.416;7.716;2022-10-26T15:58:18;17.10;99.90
50947;DHT22;36955;47.416;7.716;2022-10-26T16:00:45;17.10;99.90
50947;DHT22;36955;47.416;7.716;2022-10-26T16:03:37;17.10;99.90
50947;DHT22;36955;47.416;7.716;2022-10-26T16:06:03;17.00;99.90
50947;DHT22;36955;47.416;7.716;2022-10-26T16:08:30;16.90;99.90
50947;DHT22;36955;47.416;7.716;2022-10-26T16:10:56;16.90;99.90
50947;DHT22;36955;47.416;7.716;2022-10-26T16:13:22;16.80;99.90
50947;DHT22;36955;47.416;7.716;2022-10-26T16:15:48;16.80;99.90
50947;DHT22;36955;47.416;7.716;2022-10-26T16:18:14;16.70;99.90
50947;DHT22;36955;47.416;7.716;2022-10-26T16:20:44;16.60;99.90
50947;DHT22;36955;47.416;7.716;2022-10-26T16:23:10;16.50;99.90
50947;DHT22;36955;47.416;7.716;2022-10-26T16:25:44;16.40;99.90
50947;DHT22;36955;47.416;7.716;2022-10-26T16:28:13;16.40;99.90
50947;DHT22;36955;47.416;7.716;2022-10-26T16:30:40;16.30;99.90
50947;DHT22;36955;47.416;7.716;2022-10-26T16:33:06;16.30;99.90
50947;DHT22;36955;47.416;7.716;2022-10-26T16:35:32;16.30;99.90
50947;DHT22;36955;47.416;7.716;2022-10-26T16:37:58;16.30;99.90
50947;DHT22;36955;47.416;7.716;2022-10-26T16:40:24;16.30;99.90
50947;DHT22;36955;47.416;7.716;2022-10-26T16:42:50;16.30;99.90
50947;DHT22;36955;47.416;7.716;2022-10-26T16:45:16;16.20;99.90
50947;DHT22;36955;47.416;7.716;2022-10-26T16:47:43;16.20;99.90
50947;DHT22;36955;47.416;7.716;2022-10-26T16:50:10;16.20;99.90
50947;DHT22;36955;47.416;7.716;2022-10-26T16:52:37;16.20;99.90
50947;DHT22;36955;47.416;7.716;2022-10-26T16:55:05;16.20;99.90
50947;DHT22;36955;47.416;7.716;2022-10-26T16:57:32;16.20;99.90
50947;DHT22;36955;47.416;7.716;2022-10-26T16:59:59;16.10;99.90
50947;DHT22;36955;47.416;7.716;2022-10-26T17:02:25;16.10;99.90
50947;DHT22;36955;47.416;7.716;2022-10-26T17:04:51;16.10;99.90
50947;DHT22;36955;47.416;7.716;2022-10-26T17:07:17;16.10;99.90
50947;DHT22;36955;47.416;7.716;2022-10-26T17:09:43;16.10;99.90
50947;DHT22;36955;47.416;7.716;2022-10-26T17:12:09;16.00;99.90
50947;DHT22;36955;47.416;7.716;2022-10-26T17:14:36;16.00;99.90
50947;DHT22;36955;47.416;7.716;2022-10-26T17:17:02;15.90;99.90
50947;DHT22;36955;47.416;7.716;2022-10-26T17:19:29;15.80;99.90
50947;DHT22;36955;47.416;7.716;2022-10-26T17:21:55;15.80;99.90
50947;DHT22;36955;47.416;7.716;2022-10-26T17:24:21;15.70;99.90
50947;DHT22;36955;47.416;7.716;2022-10-26T17:26:47;15.70;99.90
50947;DHT22;36955;47.416;7.716;2022-10-26T17:29:13;15.70;99.90
50947;DHT22;36955;47.416;7.716;2022-10-26T17:31:39;15.60;99.90
50947;DHT22;36955;47.416;7.716;2022-10-26T17:34:05;15.60;99.90
50947;DHT22;36955;47.416;7.716;2022-10-26T17:36:31;15.60;99.90
50947;DHT22;36955;47.416;7.716;2022-10-26T17:38:57;15.60;99.90
50947;DHT22;36955;47.416;7.716;2022-10-26T17:41:23;15.60;99.90
50947;DHT22;36955;47.416;7.716;2022-10-26T17:43:50;15.60;99.90
50947;DHT22;36955;47.416;7.716;2022-10-26T17:46:21;15.60;99.90
50947;DHT22;36955;47.416;7.716;2022-10-26T17:48:47;15.70;99.90
50947;DHT22;36955;47.416;7.716;2022-10-26T17:51:15;15.60;99.90
50947;DHT22;36955;47.416;7.716;2022-10-26T17:53:45;15.70;99.90
50947;DHT22;36955;47.416;7.716;2022-10-26T17:56:17;15.70;99.90